ENT2WD EPWA-LIPZ
Flight info
| Callsign | ENT2WD |
|---|---|
| Flight time | N/A |
| Altitude | 34000 |
| Route | EVINA Z175 SKARY DCT MAREG DCT RADLY DCT RIFEN/N0450F330 DCT BADOP P125 TULIK Z71 BASOG |
| Aircraft | B38M/M-SDE1FGHILORVWXY/HB1 |
Departure
| Time | N/A |
|---|---|
| Airport | Warsaw Chopin Airport (EPWA) |
Arrival
| Time | 2026-05-03 20:56 |
|---|---|
| Airport | Venice Marco Polo Airport (LIPZ) |
| Time | Latitude | Longitude | Altitude | Speed | Heading |
|---|---|---|---|---|---|
| 2026-05-03 20:15 | 47.65126 | 16.33897 | 34065 ft | 464 kts | 220° |
| 2026-05-03 20:15 | 47.60029 | 16.28029 | 34068 ft | 464 kts | 220° |
| 2026-05-03 20:16 | 47.54925 | 16.22168 | 34075 ft | 464 kts | 220° |
| 2026-05-03 20:16 | 47.49820 | 16.16319 | 34075 ft | 464 kts | 220° |
| 2026-05-03 20:17 | 47.44713 | 16.10484 | 34074 ft | 464 kts | 220° |
| 2026-05-03 20:17 | 47.39605 | 16.04662 | 34083 ft | 464 kts | 220° |
| 2026-05-03 20:18 | 47.34488 | 15.98846 | 34078 ft | 464 kts | 220° |
| 2026-05-03 20:18 | 47.29369 | 15.93040 | 34074 ft | 464 kts | 220° |
| 2026-05-03 20:19 | 47.24256 | 15.87257 | 34080 ft | 463 kts | 220° |
| 2026-05-03 20:19 | 47.19172 | 15.81520 | 34088 ft | 463 kts | 220° |
| 2026-05-03 20:20 | 47.14052 | 15.75757 | 34076 ft | 463 kts | 220° |
| 2026-05-03 20:20 | 47.11579 | 15.72979 | 34077 ft | 463 kts | 220° |
| 2026-05-03 20:21 | 47.06455 | 15.67233 | 34088 ft | 463 kts | 220° |
| 2026-05-03 20:21 | 47.01363 | 15.61537 | 34096 ft | 463 kts | 220° |
| 2026-05-03 20:22 | 46.96241 | 15.55821 | 34103 ft | 463 kts | 220° |
| 2026-05-03 20:22 | 46.91106 | 15.50104 | 34108 ft | 463 kts | 220° |
| 2026-05-03 20:23 | 46.85974 | 15.44406 | 34089 ft | 463 kts | 219° |
| 2026-05-03 20:23 | 46.80845 | 15.38726 | 34096 ft | 463 kts | 219° |
| 2026-05-03 20:24 | 46.75713 | 15.33051 | 34075 ft | 463 kts | 219° |
| 2026-05-03 20:24 | 46.70585 | 15.27397 | 34092 ft | 463 kts | 219° |
| 2026-05-03 20:25 | 46.65518 | 15.21716 | 34075 ft | 460 kts | 226° |
| 2026-05-03 20:25 | 46.63485 | 15.18189 | 34094 ft | 453 kts | 238° |
| 2026-05-03 20:25 | 46.61657 | 15.14435 | 34073 ft | 456 kts | 237° |
| 2026-05-03 20:26 | 46.58001 | 15.06929 | 34084 ft | 454 kts | 237° |
| 2026-05-03 20:26 | 46.54390 | 14.99428 | 34087 ft | 452 kts | 237° |
| 2026-05-03 20:27 | 46.50784 | 14.91942 | 34097 ft | 452 kts | 237° |
| 2026-05-03 20:27 | 46.47174 | 14.84466 | 34089 ft | 452 kts | 237° |
| 2026-05-03 20:28 | 46.43555 | 14.76991 | 34092 ft | 452 kts | 237° |
| 2026-05-03 20:28 | 46.39936 | 14.69538 | 34092 ft | 452 kts | 237° |
| 2026-05-03 20:29 | 46.36335 | 14.62139 | 34125 ft | 452 kts | 237° |
| 2026-05-03 20:29 | 46.32706 | 14.54705 | 34068 ft | 450 kts | 237° |
| 2026-05-03 20:30 | 46.29103 | 14.47342 | 34102 ft | 448 kts | 237° |
| 2026-05-03 20:30 | 46.25502 | 14.40003 | 34103 ft | 447 kts | 237° |
| 2026-05-03 20:31 | 46.21906 | 14.32695 | 34101 ft | 446 kts | 237° |
| 2026-05-03 20:31 | 46.18305 | 14.25393 | 34108 ft | 446 kts | 237° |
| 2026-05-03 20:32 | 46.14698 | 14.18099 | 34109 ft | 446 kts | 237° |
| 2026-05-03 20:32 | 46.11112 | 14.10866 | 34112 ft | 446 kts | 237° |
| 2026-05-03 20:33 | 46.07499 | 14.03597 | 34114 ft | 445 kts | 237° |
| 2026-05-03 20:33 | 46.03898 | 13.96372 | 34114 ft | 442 kts | 237° |
| 2026-05-03 20:34 | 46.00325 | 13.89221 | 33807 ft | 433 kts | 237° |
| 2026-05-03 20:34 | 45.98575 | 13.85726 | 33278 ft | 429 kts | 237° |
| 2026-05-03 20:34 | 45.96836 | 13.82256 | 32766 ft | 425 kts | 237° |
| 2026-05-03 20:34 | 45.95110 | 13.78818 | 32252 ft | 422 kts | 237° |
| 2026-05-03 20:35 | 45.93398 | 13.75409 | 31738 ft | 419 kts | 237° |
| 2026-05-03 20:35 | 45.91698 | 13.72028 | 31239 ft | 416 kts | 236° |
| 2026-05-03 20:35 | 45.90006 | 13.68666 | 30718 ft | 414 kts | 236° |
| 2026-05-03 20:35 | 45.88322 | 13.65325 | 30213 ft | 412 kts | 236° |
| 2026-05-03 20:36 | 45.86641 | 13.61992 | 29625 ft | 411 kts | 236° |
| 2026-05-03 20:36 | 45.84952 | 13.58754 | 29067 ft | 409 kts | 230° |
| 2026-05-03 20:36 | 45.83005 | 13.55778 | 28497 ft | 408 kts | 228° |
| 2026-05-03 20:36 | 45.81070 | 13.52831 | 28073 ft | 403 kts | 228° |
| 2026-05-03 20:37 | 45.79148 | 13.49912 | 27594 ft | 400 kts | 228° |
| 2026-05-03 20:37 | 45.77234 | 13.47011 | 27114 ft | 397 kts | 228° |
| 2026-05-03 20:37 | 45.75344 | 13.44147 | 26639 ft | 395 kts | 227° |
| 2026-05-03 20:37 | 45.73460 | 13.41298 | 26167 ft | 392 kts | 227° |
| 2026-05-03 20:38 | 45.71590 | 13.38471 | 25701 ft | 390 kts | 227° |
| 2026-05-03 20:38 | 45.69728 | 13.35659 | 25227 ft | 388 kts | 227° |
| 2026-05-03 20:38 | 45.67902 | 13.32904 | 24778 ft | 386 kts | 227° |
| 2026-05-03 20:38 | 45.66056 | 13.30123 | 24330 ft | 384 kts | 226° |
| 2026-05-03 20:39 | 45.64218 | 13.27356 | 23889 ft | 382 kts | 226° |
| 2026-05-03 20:39 | 45.62390 | 13.24609 | 23412 ft | 381 kts | 226° |
| 2026-05-03 20:39 | 45.60567 | 13.21869 | 22920 ft | 378 kts | 226° |
| 2026-05-03 20:39 | 45.58761 | 13.19159 | 22481 ft | 375 kts | 226° |
| 2026-05-03 20:40 | 45.56969 | 13.16473 | 22073 ft | 371 kts | 226° |
| 2026-05-03 20:40 | 45.55198 | 13.13820 | 21664 ft | 368 kts | 226° |
| 2026-05-03 20:40 | 45.53438 | 13.11186 | 21270 ft | 365 kts | 226° |
| 2026-05-03 20:40 | 45.51695 | 13.08582 | 20866 ft | 362 kts | 226° |
| 2026-05-03 20:41 | 45.49966 | 13.05999 | 20477 ft | 359 kts | 226° |
| 2026-05-03 20:41 | 45.48248 | 13.03434 | 20090 ft | 356 kts | 226° |
| 2026-05-03 20:41 | 45.46539 | 13.00905 | 19696 ft | 353 kts | 224° |
| 2026-05-03 20:41 | 45.44573 | 12.98818 | 19272 ft | 352 kts | 214° |
| 2026-05-03 20:42 | 45.42553 | 12.96879 | 18903 ft | 349 kts | 214° |
| 2026-05-03 20:42 | 45.40548 | 12.94945 | 18541 ft | 347 kts | 214° |
| 2026-05-03 20:42 | 45.38558 | 12.93028 | 18136 ft | 345 kts | 214° |
| 2026-05-03 20:42 | 45.36605 | 12.91150 | 17744 ft | 342 kts | 214° |
| 2026-05-03 20:43 | 45.34644 | 12.89265 | 17367 ft | 339 kts | 214° |
| 2026-05-03 20:43 | 45.32701 | 12.87391 | 16992 ft | 335 kts | 216° |
| 2026-05-03 20:43 | 45.31073 | 12.85052 | 16551 ft | 334 kts | 236° |
| 2026-05-03 20:43 | 45.29861 | 12.82261 | 16216 ft | 331 kts | 238° |
| 2026-05-03 20:44 | 45.28662 | 12.79484 | 15864 ft | 328 kts | 237° |
| 2026-05-03 20:44 | 45.27332 | 12.76876 | 15478 ft | 326 kts | 233° |
| 2026-05-03 20:44 | 45.25995 | 12.74303 | 15146 ft | 323 kts | 233° |
| 2026-05-03 20:44 | 45.24676 | 12.71738 | 14795 ft | 320 kts | 233° |
| 2026-05-03 20:45 | 45.23370 | 12.69181 | 14403 ft | 320 kts | 233° |
| 2026-05-03 20:45 | 45.22066 | 12.66621 | 13994 ft | 320 kts | 233° |
| 2026-05-03 20:45 | 45.20766 | 12.64065 | 13612 ft | 318 kts | 234° |
| 2026-05-03 20:45 | 45.19476 | 12.61529 | 13234 ft | 316 kts | 233° |
| 2026-05-03 20:46 | 45.18628 | 12.59860 | 13004 ft | 314 kts | 233° |
| 2026-05-03 20:46 | 45.17355 | 12.57359 | 12658 ft | 312 kts | 233° |
| 2026-05-03 20:46 | 45.16090 | 12.54876 | 12313 ft | 309 kts | 233° |
| 2026-05-03 20:46 | 45.14845 | 12.52425 | 12093 ft | 302 kts | 235° |
| 2026-05-03 20:47 | 45.13999 | 12.49725 | 11675 ft | 303 kts | 258° |
| 2026-05-03 20:47 | 45.14041 | 12.46754 | 11368 ft | 302 kts | 283° |
| 2026-05-03 20:47 | 45.14712 | 12.43987 | 11270 ft | 292 kts | 288° |
| 2026-05-03 20:47 | 45.15391 | 12.41311 | 11069 ft | 286 kts | 288° |
| 2026-05-03 20:48 | 45.16072 | 12.38664 | 10745 ft | 285 kts | 288° |
| 2026-05-03 20:48 | 45.16746 | 12.36069 | 10436 ft | 284 kts | 288° |
| 2026-05-03 20:48 | 45.17428 | 12.33449 | 10132 ft | 283 kts | 288° |
| 2026-05-03 20:48 | 45.18109 | 12.30844 | 9806 ft | 281 kts | 288° |
| 2026-05-03 20:49 | 45.18787 | 12.28253 | 9470 ft | 280 kts | 289° |
| 2026-05-03 20:49 | 45.19783 | 12.25902 | 9145 ft | 280 kts | 313° |
| 2026-05-03 20:49 | 45.21309 | 12.24222 | 8611 ft | 279 kts | 323° |
| 2026-05-03 20:49 | 45.22895 | 12.22657 | 8145 ft | 273 kts | 323° |
| 2026-05-03 20:50 | 45.24443 | 12.21141 | 7383 ft | 271 kts | 323° |
| 2026-05-03 20:50 | 45.25996 | 12.19629 | 6692 ft | 268 kts | 324° |
| 2026-05-03 20:50 | 45.27526 | 12.18143 | 5997 ft | 264 kts | 324° |
| 2026-05-03 20:50 | 45.29035 | 12.16680 | 5284 ft | 261 kts | 324° |
| 2026-05-03 20:51 | 45.30536 | 12.15225 | 4624 ft | 262 kts | 325° |
| 2026-05-03 20:51 | 45.32182 | 12.14206 | 4215 ft | 258 kts | 348° |
| 2026-05-03 20:51 | 45.33934 | 12.14318 | 3908 ft | 251 kts | 15° |
| 2026-05-03 20:51 | 45.35428 | 12.15506 | 3609 ft | 244 kts | 41° |
| 2026-05-03 20:52 | 45.36603 | 12.17202 | 3309 ft | 237 kts | 45° |
| 2026-05-03 20:52 | 45.37766 | 12.18830 | 2999 ft | 231 kts | 43° |
| 2026-05-03 20:52 | 45.38932 | 12.20363 | 2707 ft | 225 kts | 42° |
| 2026-05-03 20:52 | 45.40086 | 12.21842 | 2411 ft | 221 kts | 42° |
| 2026-05-03 20:53 | 45.41217 | 12.23288 | 2123 ft | 213 kts | 43° |
| 2026-05-03 20:53 | 45.42273 | 12.24637 | 1854 ft | 200 kts | 43° |
| 2026-05-03 20:53 | 45.43266 | 12.25905 | 1637 ft | 182 kts | 43° |
| 2026-05-03 20:53 | 45.44163 | 12.27053 | 1404 ft | 164 kts | 43° |
| 2026-05-03 20:54 | 45.44996 | 12.28120 | 1174 ft | 159 kts | 43° |
| 2026-05-03 20:54 | 45.46623 | 12.30204 | 762 ft | 155 kts | 43° |
| 2026-05-03 20:54 | 45.47430 | 12.31228 | 552 ft | 155 kts | 43° |
| 2026-05-03 20:55 | 45.48225 | 12.32238 | 357 ft | 152 kts | 43° |
| 2026-05-03 20:55 | 45.49013 | 12.33252 | 154 ft | 152 kts | 44° |
| 2026-05-03 20:55 | 45.49789 | 12.34255 | 18 ft | 143 kts | 43° |
| 2026-05-03 20:55 | 45.50383 | 12.35024 | 15 ft | 82 kts | 41° |
| 2026-05-03 20:56 | 45.50614 | 12.35309 | 16 ft | 17 kts | 34° |
| 2026-05-03 20:56 | 45.50724 | 12.35391 | 20 ft | 19 kts | 21° |
| 2026-05-03 20:56 | 45.50798 | 12.35423 | 20 ft | 9 kts | 14° |
| 2026-05-03 20:56 | 45.50870 | 12.35447 | 18 ft | 12 kts | 12° |
| 2026-05-03 20:57 | 45.50951 | 12.35426 | 21 ft | 13 kts | 324° |
| 2026-05-03 20:57 | 45.50974 | 12.35306 | 19 ft | 15 kts | 258° |
| 2026-05-03 20:57 | 45.50926 | 12.35163 | 19 ft | 18 kts | 228° |
| 2026-05-03 20:57 | 45.50830 | 12.35040 | 19 ft | 20 kts | 223° |
| 2026-05-03 20:58 | 45.50746 | 12.34931 | 18 ft | 13 kts | 221° |
| 2026-05-03 20:58 | 45.50685 | 12.34855 | 18 ft | 10 kts | 221° |
| 2026-05-03 20:58 | 45.50627 | 12.34777 | 18 ft | 13 kts | 233° |
| 2026-05-03 20:58 | 45.50604 | 12.34645 | 19 ft | 15 kts | 266° |
| 2026-05-03 20:59 | 45.50598 | 12.34484 | 18 ft | 17 kts | 267° |
| 2026-05-03 20:59 | 45.50617 | 12.34373 | 18 ft | 9 kts | 306° |
| 2026-05-03 20:59 | 45.50650 | 12.34321 | 18 ft | 5 kts | 319° |
| 2026-05-03 20:59 | 45.50677 | 12.34322 | 18 ft | 4 kts | 40° |
| 2026-05-03 21:00 | 45.50686 | 12.34350 | 18 ft | 4 kts | 72° |
| 2026-05-03 21:00 | 45.50688 | 12.34361 | 18 ft | 1 kts | 70° |
| 2026-05-03 21:00 | 45.50698 | 12.34363 | 19 ft | 1 kts | 342° |
| 2026-05-03 21:00 | 45.50703 | 12.34292 | 18 ft | 16 kts | 266° |
| 2026-05-03 21:01 | 45.50768 | 12.34137 | 18 ft | 16 kts | 327° |
| 2026-05-03 21:01 | 45.50859 | 12.34204 | 18 ft | 17 kts | 41° |
| 2026-05-03 21:01 | 45.50897 | 12.34323 | 18 ft | 13 kts | 115° |
| 2026-05-03 21:01 | 45.50833 | 12.34430 | 18 ft | 15 kts | 132° |
| 2026-05-03 21:02 | 45.50781 | 12.34510 | 18 ft | 3 kts | 145° |
| 2026-05-03 21:02 | 45.50767 | 12.34503 | 18 ft | 3 kts | 220° |
| 2026-05-03 21:02 | 45.50748 | 12.34475 | 19 ft | 5 kts | 223° |
| 2026-05-03 21:02 | 45.50729 | 12.34450 | 18 ft | 0 kts | 224° |
| 2026-05-03 21:05 | 45.50729 | 12.34451 | 18 ft | 0 kts | 223° |